createdAt,value
2023-06-14T00:00:00.798Z,98687.70
2023-06-14T00:03:13.375Z,98685.08
2023-06-14T00:06:05.909Z,98686.31
2023-06-14T00:08:58.242Z,98681.20
2023-06-14T00:11:50.291Z,98678.53
2023-06-14T00:14:42.356Z,98680.30
2023-06-14T00:17:35.161Z,98678.38
2023-06-14T00:20:27.538Z,98679.72
2023-06-14T00:23:20.023Z,98676.63
2023-06-14T00:26:12.150Z,98677.23
2023-06-14T00:29:04.364Z,98680.16
2023-06-14T00:31:56.420Z,98680.50
2023-06-14T00:34:48.505Z,98678.10
2023-06-14T00:37:40.907Z,98674.96
2023-06-14T00:40:32.957Z,98673.89
2023-06-14T00:43:25.027Z,98673.59
2023-06-14T00:46:17.239Z,98672.61
2023-06-14T00:49:09.621Z,98671.08
2023-06-14T00:52:03.237Z,98670.88
2023-06-14T00:54:55.588Z,98669.52
2023-06-14T00:57:48.450Z,98667.66
2023-06-14T01:00:40.563Z,98664.39
2023-06-14T01:03:33.540Z,98667.26
2023-06-14T01:06:34.447Z,98667.09
2023-06-14T01:09:35.747Z,98666.80
2023-06-14T01:12:38.067Z,98664.77
2023-06-14T01:15:32.433Z,98659.91
2023-06-14T01:18:25.056Z,98655.48
2023-06-14T01:21:25.116Z,98648.38
2023-06-14T01:24:17.667Z,98650.75
2023-06-14T01:27:10.856Z,98650.04
2023-06-14T01:30:06.457Z,98646.56
2023-06-14T01:33:00.192Z,98645.25
2023-06-14T01:35:54.269Z,98644.45
2023-06-14T01:38:47.777Z,98648.37
2023-06-14T01:41:40.795Z,98647.78
2023-06-14T01:44:33.727Z,98647.87
2023-06-14T01:47:26.374Z,98649.05
2023-06-14T01:50:18.697Z,98646.52
2023-06-14T01:53:12.209Z,98648.66
2023-06-14T01:56:04.695Z,98652.14
2023-06-14T01:58:56.807Z,98653.48
2023-06-14T02:01:49.047Z,98652.65
2023-06-14T02:04:41.161Z,98651.34
2023-06-14T02:07:33.275Z,98645.50
2023-06-14T02:10:25.638Z,98644.48
2023-06-14T02:13:17.722Z,98642.93
2023-06-14T02:16:10.008Z,98646.09
2023-06-14T02:19:02.397Z,98643.80
2023-06-14T02:21:54.476Z,98644.10
2023-06-14T02:24:46.552Z,98642.54
2023-06-14T02:27:38.594Z,98646.44
2023-06-14T02:30:30.650Z,98646.56
2023-06-14T02:33:23.047Z,98646.23
2023-06-14T02:36:15.107Z,98646.30
2023-06-14T02:39:07.148Z,98640.77
2023-06-14T02:41:59.160Z,98645.09
2023-06-14T02:44:52.387Z,98641.00
2023-06-14T02:47:44.622Z,98644.95
2023-06-14T02:50:36.749Z,98647.23
2023-06-14T02:53:28.852Z,98644.30
2023-06-14T02:56:23.616Z,98643.77
2023-06-14T02:59:16.117Z,98642.79
2023-06-14T03:02:08.957Z,98643.98
2023-06-14T03:05:02.511Z,98638.61
2023-06-14T03:07:55.042Z,98639.59
2023-06-14T03:10:47.539Z,98634.84
2023-06-14T03:13:39.968Z,98634.80
2023-06-14T03:16:32.744Z,98635.06
2023-06-14T03:19:24.864Z,98631.55
2023-06-14T03:22:17.279Z,98636.14
2023-06-14T03:25:11.520Z,98633.74
2023-06-14T03:28:02.034Z,98633.88
2023-06-14T03:30:54.232Z,98631.17
2023-06-14T03:33:46.357Z,98629.81
2023-06-14T03:36:38.934Z,98628.36
2023-06-14T03:39:31.038Z,98627.76
2023-06-14T03:42:23.208Z,98633.23
2023-06-14T03:45:15.314Z,98637.98
2023-06-14T03:48:10.088Z,98642.90
2023-06-14T03:51:03.331Z,98646.36
2023-06-14T03:54:17.681Z,98649.93
2023-06-14T03:57:09.148Z,98650.30
2023-06-14T04:00:01.317Z,98644.69
2023-06-14T04:02:54.053Z,98648.75
2023-06-14T04:06:06.359Z,98643.73
2023-06-14T04:08:58.397Z,98647.51
2023-06-14T04:11:41.876Z,98648.63
2023-06-14T04:14:34.841Z,98646.89
2023-06-14T04:17:27.024Z,98644.45
2023-06-14T04:20:19.189Z,98649.65
2023-06-14T04:23:19.027Z,98650.84
2023-06-14T04:26:11.578Z,98643.70
2023-06-14T04:29:03.783Z,98645.60
2023-06-14T04:31:59.880Z,98648.03
2023-06-14T04:34:54.639Z,98643.66
2023-06-14T04:37:46.857Z,98640.41
2023-06-14T04:40:43.672Z,98643.86
2023-06-14T04:43:39.314Z,98643.30
2023-06-14T04:46:33.165Z,98641.77
2023-06-14T04:49:27.800Z,98644.29
2023-06-14T04:52:22.132Z,98641.92
2023-06-14T04:55:15.125Z,98644.91
2023-06-14T04:58:07.473Z,98638.33
2023-06-14T05:01:00.361Z,98641.37
2023-06-14T05:03:52.689Z,98639.76
2023-06-14T05:06:45.833Z,98643.50
2023-06-14T05:09:38.008Z,98645.69
2023-06-14T05:12:30.241Z,98649.73
2023-06-14T05:15:26.302Z,98652.51
2023-06-14T05:18:18.417Z,98653.28
2023-06-14T05:21:10.397Z,98653.36
2023-06-14T05:24:02.736Z,98655.59
2023-06-14T05:26:54.979Z,98651.95
2023-06-14T05:29:47.082Z,98649.75
2023-06-14T05:32:39.296Z,98652.19
2023-06-14T05:35:31.568Z,98659.54
2023-06-14T05:38:23.698Z,98667.63
2023-06-14T05:41:16.311Z,98670.23
2023-06-14T05:44:08.772Z,98673.58
2023-06-14T05:47:00.890Z,98671.83
2023-06-14T05:49:53.299Z,98672.60
2023-06-14T05:52:45.345Z,98671.52
2023-06-14T05:55:38.590Z,98675.39
2023-06-14T05:58:31.478Z,98677.58
2023-06-14T06:01:23.597Z,98683.17
2023-06-14T06:04:15.684Z,98680.39
2023-06-14T06:07:08.238Z,98686.25
2023-06-14T06:10:00.890Z,98685.69
2023-06-14T06:12:53.239Z,98685.25
2023-06-14T06:15:45.392Z,98686.82
2023-06-14T06:18:37.620Z,98685.04
2023-06-14T06:21:29.752Z,98684.70
2023-06-14T06:24:21.874Z,98688.37
2023-06-14T06:27:14.479Z,98686.82
2023-06-14T06:30:07.910Z,98686.89
2023-06-14T06:33:00.449Z,98683.52
2023-06-14T06:35:52.624Z,98689.33
2023-06-14T06:38:44.686Z,98686.10
2023-06-14T06:41:38.489Z,98686.54
2023-06-14T06:44:30.578Z,98687.55
2023-06-14T06:47:22.639Z,98693.53
2023-06-14T06:50:14.868Z,98697.06
2023-06-14T06:53:07.886Z,98699.05
2023-06-14T06:56:00.093Z,98707.33
2023-06-14T06:58:37.222Z,98709.83
2023-06-14T07:01:30.211Z,98707.25
2023-06-14T07:04:22.421Z,98705.02
2023-06-14T07:07:14.733Z,98704.42
2023-06-14T07:10:08.717Z,98708.08
2023-06-14T07:13:00.887Z,98714.09
2023-06-14T07:15:54.478Z,98709.29
2023-06-14T07:18:46.579Z,98709.12
2023-06-14T07:21:39.713Z,98713.06
2023-06-14T07:24:32.135Z,98713.37
2023-06-14T07:27:24.284Z,98719.13
2023-06-14T07:30:16.811Z,98722.60
2023-06-14T07:33:09.639Z,98724.68
2023-06-14T07:36:01.855Z,98727.89
2023-06-14T07:38:53.957Z,98730.41
2023-06-14T07:41:46.244Z,98733.16
2023-06-14T07:44:38.343Z,98733.58
2023-06-14T07:47:30.673Z,98737.16
2023-06-14T07:50:22.782Z,98739.48
2023-06-14T07:53:14.812Z,98749.31
2023-06-14T07:56:07.268Z,98746.58
2023-06-14T07:58:59.516Z,98744.27
2023-06-14T08:01:51.545Z,98743.80
2023-06-14T08:04:43.800Z,98740.73
2023-06-14T08:07:35.881Z,98743.55
2023-06-14T08:10:11.669Z,98744.73
2023-06-14T08:13:03.801Z,98744.19
2023-06-14T08:15:56.432Z,98742.48
2023-06-14T08:18:29.069Z,98744.19
2023-06-14T08:21:21.211Z,98740.14
2023-06-14T08:24:15.009Z,98735.20
2023-06-14T08:27:07.822Z,98742.47
2023-06-14T08:29:59.855Z,98745.69
2023-06-14T08:33:02.275Z,98744.64
2023-06-14T08:36:02.798Z,98749.23
2023-06-14T08:38:54.829Z,98747.87
2023-06-14T08:41:49.769Z,98749.81
2023-06-14T08:44:42.275Z,98753.89
2023-06-14T08:47:41.712Z,98754.84
2023-06-14T08:50:37.959Z,98754.52
2023-06-14T08:53:20.732Z,98759.42
2023-06-14T08:56:02.799Z,98759.41
2023-06-14T08:58:55.393Z,98759.06
2023-06-14T09:01:59.746Z,98762.15
2023-06-14T09:05:01.741Z,98768.43
2023-06-14T09:07:55.928Z,98778.47
2023-06-14T09:10:46.834Z,98778.08
2023-06-14T09:13:39.393Z,98779.94
2023-06-14T09:16:34.504Z,98783.96
2023-06-14T09:19:27.087Z,98781.54
2023-06-14T09:22:20.066Z,98781.05
2023-06-14T09:24:57.504Z,98782.15
2023-06-14T09:27:50.820Z,98781.74
2023-06-14T09:30:42.974Z,98784.83
2023-06-14T09:33:36.171Z,98781.78
2023-06-14T09:36:29.554Z,98785.59
2023-06-14T09:39:21.917Z,98780.89
2023-06-14T09:42:21.611Z,98785.67
2023-06-14T09:45:20.617Z,98779.84
2023-06-14T09:48:31.578Z,98782.42
2023-06-14T09:51:26.304Z,98782.95
2023-06-14T09:54:22.745Z,98782.83
2023-06-14T09:57:16.228Z,98783.05
2023-06-14T10:00:12.730Z,98785.63
2023-06-14T10:03:39.347Z,98787.84
2023-06-14T10:06:45.266Z,98787.55
2023-06-14T10:09:38.189Z,98786.29
2023-06-14T10:12:30.577Z,98780.38
2023-06-14T10:15:26.231Z,98783.50
2023-06-14T10:18:33.024Z,98781.98
2023-06-14T10:21:40.063Z,98784.16
2023-06-14T10:24:35.509Z,98782.25
2023-06-14T10:27:27.759Z,98787.86
2023-06-14T10:30:28.087Z,98785.29
2023-06-14T10:33:20.206Z,98787.69
2023-06-14T10:36:28.749Z,98789.48
2023-06-14T10:39:21.653Z,98789.48
2023-06-14T10:42:14.318Z,98787.04
2023-06-14T10:45:07.852Z,98787.36
2023-06-14T10:48:03.654Z,98783.34
2023-06-14T10:51:04.224Z,98782.64
2023-06-14T10:54:01.339Z,98779.42
2023-06-14T10:56:55.991Z,98778.17
2023-06-14T10:59:49.679Z,98780.27
2023-06-14T11:02:55.684Z,98778.35
2023-06-14T11:05:54.968Z,98776.16
2023-06-14T11:09:22.239Z,98773.47
2023-06-14T11:12:15.297Z,98769.84
2023-06-14T11:15:09.468Z,98769.12
2023-06-14T11:18:02.299Z,98770.46
2023-06-14T11:20:54.499Z,98770.36
2023-06-14T11:23:53.483Z,98767.30
2023-06-14T11:26:46.314Z,98768.64
2023-06-14T11:29:38.330Z,98767.12
2023-06-14T11:32:30.545Z,98761.60
2023-06-14T11:35:25.225Z,98756.41
2023-06-14T11:38:17.376Z,98756.36
2023-06-14T11:41:09.450Z,98754.14
2023-06-14T11:44:02.018Z,98757.38
2023-06-14T11:46:54.391Z,98761.31
2023-06-14T11:49:46.567Z,98760.15
2023-06-14T11:52:40.562Z,98761.56
2023-06-14T11:55:32.709Z,98759.48
2023-06-14T11:58:24.788Z,98750.82
2023-06-14T12:01:20.056Z,98745.14
2023-06-14T12:04:12.122Z,98744.98
2023-06-14T12:07:16.022Z,98736.98
2023-06-14T12:10:12.412Z,98731.80
2023-06-14T12:12:46.941Z,98732.98
2023-06-14T12:15:39.100Z,98730.21
2023-06-14T12:18:13.835Z,98728.28
2023-06-14T12:21:07.714Z,98727.44
2023-06-14T12:24:00.017Z,98726.44
2023-06-14T12:26:44.090Z,98724.48
2023-06-14T12:29:36.869Z,98726.91
2023-06-14T12:32:29.207Z,98726.94
2023-06-14T12:35:11.571Z,98721.69
2023-06-14T12:38:04.791Z,98717.54
2023-06-14T12:40:56.985Z,98720.71
2023-06-14T12:43:49.051Z,98718.01
2023-06-14T12:46:49.561Z,98715.88
2023-06-14T12:49:43.306Z,98712.48
2023-06-14T12:52:36.975Z,98711.61
2023-06-14T12:55:33.999Z,98710.18
2023-06-14T12:58:26.121Z,98704.83
2023-06-14T13:01:18.608Z,98700.54
2023-06-14T13:04:11.246Z,98701.41
2023-06-14T13:07:03.361Z,98703.77
2023-06-14T13:09:55.592Z,98704.16
2023-06-14T13:12:47.607Z,98703.30
2023-06-14T13:15:39.934Z,98705.27
2023-06-14T13:18:32.007Z,98704.83
2023-06-14T13:21:24.206Z,98708.73
2023-06-14T13:24:16.429Z,98710.63
2023-06-14T13:27:09.414Z,98712.27
2023-06-14T13:30:01.516Z,98711.70
2023-06-14T13:32:53.992Z,98708.20
2023-06-14T13:35:46.220Z,98711.95
2023-06-14T13:38:38.341Z,98716.69
2023-06-14T13:41:34.761Z,98720.11
2023-06-14T13:44:26.914Z,98718.20
2023-06-14T13:47:18.951Z,98713.44
2023-06-14T13:50:11.992Z,98713.77
2023-06-14T13:53:04.103Z,98715.55
2023-06-14T13:55:56.188Z,98717.63
2023-06-14T13:58:48.314Z,98712.66
2023-06-14T14:01:40.746Z,98709.09
2023-06-14T14:04:32.876Z,98705.50
2023-06-14T14:07:24.953Z,98704.96
2023-06-14T14:10:17.246Z,98708.66
2023-06-14T14:13:09.556Z,98709.62
2023-06-14T14:16:01.882Z,98711.77
2023-06-14T14:18:54.047Z,98712.71
2023-06-14T14:21:28.884Z,98713.78
2023-06-14T14:24:20.951Z,98714.16
2023-06-14T14:27:13.914Z,98714.32
2023-06-14T14:30:06.504Z,98713.31
2023-06-14T14:32:49.197Z,98713.50
2023-06-14T14:35:31.769Z,98716.91
2023-06-14T14:38:13.849Z,98713.37
2023-06-14T14:41:06.199Z,98716.88
2023-06-14T14:43:59.677Z,98717.08
2023-06-14T14:46:37.255Z,98714.61
2023-06-14T14:49:20.145Z,98715.64
2023-06-14T14:52:23.414Z,98706.77
2023-06-14T14:55:16.630Z,98703.13
2023-06-14T14:58:09.368Z,98700.90
2023-06-14T15:01:01.573Z,98697.33
2023-06-14T15:03:59.198Z,98697.86
2023-06-14T15:06:52.273Z,98699.86
2023-06-14T15:09:44.495Z,98697.52
2023-06-14T15:12:36.520Z,98693.54
2023-06-14T15:15:28.606Z,98696.59
2023-06-14T15:18:21.689Z,98696.40
2023-06-14T15:21:13.945Z,98695.95
2023-06-14T15:24:06.443Z,98690.36
2023-06-14T15:26:43.729Z,98688.48
2023-06-14T15:29:35.774Z,98682.23
2023-06-14T15:32:27.919Z,98678.98
2023-06-14T15:35:20.551Z,98681.89
2023-06-14T15:38:12.659Z,98684.50
2023-06-14T15:41:04.939Z,98686.27
2023-06-14T15:43:56.991Z,98680.36
2023-06-14T15:46:50.460Z,98679.11
2023-06-14T15:49:44.320Z,98682.41
2023-06-14T15:52:36.566Z,98681.70
2023-06-14T15:55:28.602Z,98676.27
2023-06-14T15:58:20.631Z,98682.32
2023-06-14T16:01:12.682Z,98687.75
2023-06-14T16:04:04.907Z,98690.36
2023-06-14T16:06:57.103Z,98688.55
2023-06-14T16:09:29.101Z,98694.95
2023-06-14T16:12:22.313Z,98691.61
2023-06-14T16:15:15.976Z,98699.11
2023-06-14T16:18:08.183Z,98693.41
2023-06-14T16:21:00.276Z,98692.70
2023-06-14T16:23:52.575Z,98693.86
2023-06-14T16:26:44.676Z,98693.38
2023-06-14T16:29:36.875Z,98694.86
2023-06-14T16:32:29.135Z,98692.21
2023-06-14T16:35:21.344Z,98694.36
2023-06-14T16:38:13.628Z,98696.52
2023-06-14T16:41:06.347Z,98697.70
2023-06-14T16:43:58.439Z,98705.81
2023-06-14T16:46:50.515Z,98712.05
2023-06-14T16:49:42.676Z,98724.35
2023-06-14T16:52:34.812Z,98725.34
2023-06-14T16:55:26.864Z,98725.12
2023-06-14T16:58:18.929Z,98725.23
2023-06-14T17:01:11.142Z,98727.97
2023-06-14T17:04:03.385Z,98732.05
2023-06-14T17:06:55.620Z,98730.51
2023-06-14T17:09:49.667Z,98735.98
2023-06-14T17:12:42.197Z,98741.86
2023-06-14T17:15:34.302Z,98741.34
2023-06-14T17:18:26.397Z,98748.41
2023-06-14T17:21:18.621Z,98750.04
2023-06-14T17:28:20.694Z,98750.98
2023-06-14T17:31:30.248Z,98752.23
2023-06-14T17:34:22.395Z,98756.06
2023-06-14T17:37:14.498Z,98759.50
2023-06-14T17:40:08.052Z,98758.73
2023-06-14T17:43:01.672Z,98758.95
2023-06-14T17:45:53.774Z,98765.83
2023-06-14T17:48:45.907Z,98770.85
2023-06-14T17:51:38.178Z,98769.83
2023-06-14T17:54:30.364Z,98771.34
2023-06-14T17:57:22.431Z,98770.13
2023-06-14T18:00:16.830Z,98771.98
2023-06-14T18:03:09.305Z,98775.49
2023-06-14T18:06:01.671Z,98778.45
2023-06-14T18:08:54.060Z,98775.49
2023-06-14T18:11:46.176Z,98777.60
2023-06-14T18:14:38.294Z,98778.07
2023-06-14T18:17:30.422Z,98778.30
2023-06-14T18:20:23.042Z,98779.96
2023-06-14T18:23:15.060Z,98782.33
2023-06-14T18:26:07.157Z,98779.60
2023-06-14T18:28:59.449Z,98778.14
2023-06-14T18:31:51.569Z,98777.21
2023-06-14T18:34:43.659Z,98776.06
2023-06-14T18:37:35.809Z,98780.41
2023-06-14T18:40:26.959Z,98777.89
2023-06-14T18:43:19.062Z,98777.91
2023-06-14T18:46:13.034Z,98783.17
2023-06-14T18:49:05.252Z,98783.70
2023-06-14T18:51:57.384Z,98784.59
2023-06-14T18:54:49.512Z,98790.64
2023-06-14T18:57:41.814Z,98788.34
2023-06-14T19:00:34.230Z,98792.88
2023-06-14T19:03:26.495Z,98792.96
2023-06-14T19:06:18.707Z,98792.54
2023-06-14T19:09:10.932Z,98796.58
2023-06-14T19:12:03.160Z,98798.92
2023-06-14T19:14:55.416Z,98799.65
2023-06-14T19:18:00.516Z,98801.36
2023-06-14T19:20:52.792Z,98801.85
2023-06-14T19:23:45.778Z,98804.69
2023-06-14T19:26:37.968Z,98807.09
2023-06-14T19:29:31.320Z,98802.52
2023-06-14T19:32:23.756Z,98800.95
2023-06-14T19:35:16.389Z,98802.14
2023-06-14T19:38:08.542Z,98806.45
2023-06-14T19:41:00.612Z,98803.44
2023-06-14T19:43:55.118Z,98805.80
2023-06-14T19:46:47.135Z,98809.14
2023-06-14T19:49:39.168Z,98808.36
2023-06-14T19:52:31.269Z,98810.88
2023-06-14T19:55:23.376Z,98813.15
2023-06-14T19:58:15.599Z,98811.64
2023-06-14T20:01:08.545Z,98816.63
2023-06-14T20:04:00.702Z,98815.33
2023-06-14T20:06:56.671Z,98815.66
2023-06-14T20:09:48.713Z,98812.27
2023-06-14T20:12:42.492Z,98816.02
2023-06-14T20:15:34.535Z,98814.74
2023-06-14T20:18:26.620Z,98812.19
2023-06-14T20:21:18.746Z,98811.92
2023-06-14T20:24:11.053Z,98814.88
2023-06-14T20:27:03.237Z,98813.51
2023-06-14T20:29:55.303Z,98809.07
2023-06-14T20:32:47.458Z,98804.97
2023-06-14T20:35:40.689Z,98806.48
2023-06-14T20:38:32.756Z,98807.38
2023-06-14T20:41:24.786Z,98801.38
2023-06-14T20:44:17.294Z,98804.29
2023-06-14T20:46:58.272Z,98804.09
2023-06-14T20:49:50.418Z,98800.00
2023-06-14T20:52:42.823Z,98806.05
2023-06-14T20:55:18.769Z,98806.30
2023-06-14T20:58:11.019Z,98798.92
2023-06-14T21:00:52.513Z,98798.47
2023-06-14T21:03:44.860Z,98796.34
2023-06-14T21:06:37.843Z,98796.06
2023-06-14T21:09:30.571Z,98798.83
2023-06-14T21:12:22.688Z,98804.75
2023-06-14T21:15:12.616Z,98811.44
2023-06-14T21:18:04.868Z,98813.16
2023-06-14T21:20:57.125Z,98813.74
2023-06-14T21:23:49.197Z,98809.64
2023-06-14T21:26:41.332Z,98817.77
2023-06-14T21:29:20.644Z,98821.80
2023-06-14T21:32:13.243Z,98824.58
2023-06-14T21:35:06.349Z,98829.14
2023-06-14T21:37:58.811Z,98833.22
2023-06-14T21:40:50.889Z,98834.20
2023-06-14T21:43:43.349Z,98834.29
2023-06-14T21:46:35.837Z,98832.52
2023-06-14T21:49:28.179Z,98829.00
2023-06-14T21:52:20.390Z,98828.52
2023-06-14T21:55:12.630Z,98827.83
2023-06-14T21:58:04.684Z,98827.60
2023-06-14T22:00:56.931Z,98827.43
2023-06-14T22:03:49.121Z,98829.02
2023-06-14T22:06:44.740Z,98824.76
2023-06-14T22:09:36.785Z,98828.13
2023-06-14T22:12:29.717Z,98831.07
2023-06-14T22:15:22.214Z,98829.23
2023-06-14T22:18:14.513Z,98826.84
2023-06-14T22:21:07.840Z,98826.73
2023-06-14T22:23:59.914Z,98823.55
2023-06-14T22:26:57.613Z,98820.95
2023-06-14T22:29:50.302Z,98820.53
2023-06-14T22:32:42.571Z,98818.41
2023-06-14T22:35:25.521Z,98809.34
2023-06-14T22:38:20.561Z,98808.20
2023-06-14T22:41:13.708Z,98801.96
2023-06-14T22:44:06.344Z,98803.58
2023-06-14T22:47:01.100Z,98804.34
2023-06-14T22:50:08.124Z,98802.23
2023-06-14T22:53:20.751Z,98800.82
2023-06-14T22:56:14.334Z,98798.80
2023-06-14T22:59:06.361Z,98801.89
2023-06-14T23:01:58.628Z,98796.73
2023-06-14T23:04:50.891Z,98793.36
2023-06-14T23:07:43.665Z,98792.59
2023-06-14T23:10:37.846Z,98790.01
2023-06-14T23:13:30.081Z,98791.88
2023-06-14T23:16:23.531Z,98791.47
2023-06-14T23:19:16.880Z,98789.41
2023-06-14T23:22:13.203Z,98787.08
2023-06-14T23:25:07.545Z,98790.06
2023-06-14T23:27:59.797Z,98792.90
2023-06-14T23:30:52.081Z,98791.80
2023-06-14T23:33:44.243Z,98790.84
2023-06-14T23:36:36.251Z,98785.68
2023-06-14T23:39:28.298Z,98786.02
2023-06-14T23:42:21.609Z,98788.04
2023-06-14T23:45:14.331Z,98798.32
2023-06-14T23:48:07.077Z,98795.96
2023-06-14T23:50:59.226Z,98792.54
2023-06-14T23:53:53.584Z,98792.14
2023-06-14T23:56:48.967Z,98791.05
2023-06-14T23:59:41.136Z,98794.80
